sensor_id;sensor_type;location;lat;lon;timestamp;pressure;altitude;pressure_sealevel;temperature;humidity
68366;BME280;55283;51.466;5.478;2023-04-30T00:02:19;102162.56;;;21.76;44.24
68366;BME280;55283;51.466;5.478;2023-04-30T00:04:44;102152.91;;;21.77;44.41
68366;BME280;55283;51.466;5.478;2023-04-30T00:07:10;102154.13;;;21.76;44.27
68366;BME280;55283;51.466;5.478;2023-04-30T00:09:36;102156.94;;;21.76;44.37
68366;BME280;55283;51.466;5.478;2023-04-30T00:12:01;102159.38;;;21.74;44.27
68366;BME280;55283;51.466;5.478;2023-04-30T00:14:26;102158.16;;;21.75;44.40
68366;BME280;55283;51.466;5.478;2023-04-30T00:16:52;102157.75;;;21.77;44.39
68366;BME280;55283;51.466;5.478;2023-04-30T00:19:17;102155.44;;;21.68;44.21
68366;BME280;55283;51.466;5.478;2023-04-30T00:21:43;102172.19;;;21.75;44.28
68366;BME280;55283;51.466;5.478;2023-04-30T00:24:08;102166.66;;;21.68;44.27
68366;BME280;55283;51.466;5.478;2023-04-30T00:26:33;102164.22;;;21.70;44.38
68366;BME280;55283;51.466;5.478;2023-04-30T00:28:59;102165.38;;;21.73;44.10
68366;BME280;55283;51.466;5.478;2023-04-30T00:31:24;102167.84;;;21.70;44.28
68366;BME280;55283;51.466;5.478;2023-04-30T00:33:50;102169.47;;;21.68;44.27
68366;BME280;55283;51.466;5.478;2023-04-30T00:36:16;102167.00;;;21.70;44.36
68366;BME280;55283;51.466;5.478;2023-04-30T00:38:41;102170.63;;;21.70;44.32
68366;BME280;55283;51.466;5.478;2023-04-30T00:41:07;102162.63;;;21.69;44.35
68366;BME280;55283;51.466;5.478;2023-04-30T00:43:32;102153.03;;;21.66;44.16
68366;BME280;55283;51.466;5.478;2023-04-30T00:45:58;102165.44;;;21.69;44.10
68366;BME280;55283;51.466;5.478;2023-04-30T00:48:24;102150.34;;;21.56;44.26
68366;BME280;55283;51.466;5.478;2023-04-30T00:50:50;102169.81;;;21.70;44.38
68366;BME280;55283;51.466;5.478;2023-04-30T00:53:16;102169.47;;;21.68;44.37
68366;BME280;55283;51.466;5.478;2023-04-30T00:55:42;102172.63;;;21.70;44.21
68366;BME280;55283;51.466;5.478;2023-04-30T00:58:08;102166.22;;;21.69;44.05
68366;BME280;55283;51.466;5.478;2023-04-30T01:00:34;102168.25;;;21.69;44.03
68366;BME280;55283;51.466;5.478;2023-04-30T01:02:59;102155.84;;;21.66;44.23
68366;BME280;55283;51.466;5.478;2023-04-30T01:05:25;102156.69;;;21.63;44.21
68366;BME280;55283;51.466;5.478;2023-04-30T01:07:51;102154.25;;;21.65;44.08
68366;BME280;55283;51.466;5.478;2023-04-30T01:10:20;102152.66;;;21.64;44.28
68366;BME280;55283;51.466;5.478;2023-04-30T01:13:05;102146.72;;;21.59;44.18
68366;BME280;55283;51.466;5.478;2023-04-30T01:15:46;102156.63;;;21.67;44.12
68366;BME280;55283;51.466;5.478;2023-04-30T01:18:22;102151.00;;;21.67;44.18
68366;BME280;55283;51.466;5.478;2023-04-30T01:20:53;102150.28;;;21.63;44.26
68366;BME280;55283;51.466;5.478;2023-04-30T01:25:52;102152.66;;;21.64;44.24
68366;BME280;55283;51.466;5.478;2023-04-30T01:28:24;102144.28;;;21.61;44.00
68366;BME280;55283;51.466;5.478;2023-04-30T01:30:50;102153.81;;;21.67;44.16
68366;BME280;55283;51.466;5.478;2023-04-30T01:33:17;102155.84;;;21.66;43.90
68366;BME280;55283;51.466;5.478;2023-04-30T01:38:48;102158.66;;;21.66;44.11
68366;BME280;55283;51.466;5.478;2023-04-30T01:46:39;102157.00;;;21.69;43.80
68366;BME280;55283;51.466;5.478;2023-04-30T01:49:29;102158.25;;;21.68;43.86
68366;BME280;55283;51.466;5.478;2023-04-30T01:52:16;102150.28;;;21.63;43.90
68366;BME280;55283;51.466;5.478;2023-04-30T01:54:56;102144.66;;;21.63;43.99
68366;BME280;55283;51.466;5.478;2023-04-30T01:57:28;102154.25;;;21.65;43.97
68366;BME280;55283;51.466;5.478;2023-04-30T01:59:56;102160.28;;;21.64;44.00
68366;BME280;55283;51.466;5.478;2023-04-30T02:02:22;102166.28;;;21.66;43.93
68366;BME280;55283;51.466;5.478;2023-04-30T02:04:47;102155.03;;;21.66;43.88
68366;BME280;55283;51.466;5.478;2023-04-30T02:07:19;102165.03;;;21.67;43.83
68366;BME280;55283;51.466;5.478;2023-04-30T02:09:50;102166.28;;;21.66;43.82
68366;BME280;55283;51.466;5.478;2023-04-30T02:12:15;102157.84;;;21.66;43.86
68366;BME280;55283;51.466;5.478;2023-04-30T02:14:41;102163.47;;;21.66;43.93
68366;BME280;55283;51.466;5.478;2023-04-30T02:17:06;102158.31;;;21.61;43.94
68366;BME280;55283;51.466;5.478;2023-04-30T02:19:32;102158.25;;;21.64;43.72
68366;BME280;55283;51.466;5.478;2023-04-30T02:21:57;102166.28;;;21.66;43.81
68366;BME280;55283;51.466;5.478;2023-04-30T02:24:22;102168.34;;;21.62;44.00
68366;BME280;55283;51.466;5.478;2023-04-30T02:26:48;102161.44;;;21.66;43.90
68366;BME280;55283;51.466;5.478;2023-04-30T02:29:13;102153.47;;;21.61;43.93
68366;BME280;55283;51.466;5.478;2023-04-30T02:31:39;102171.50;;;21.64;43.88
68366;BME280;55283;51.466;5.478;2023-04-30T02:34:04;102165.88;;;21.64;43.89
68366;BME280;55283;51.466;5.478;2023-04-30T02:36:29;102170.31;;;21.65;43.59
68366;BME280;55283;51.466;5.478;2023-04-30T02:39:00;102172.72;;;21.63;43.93
68366;BME280;55283;51.466;5.478;2023-04-30T02:41:25;102171.13;;;21.62;43.71
68366;BME280;55283;51.466;5.478;2023-04-30T02:43:51;102170.31;;;21.61;43.86
68366;BME280;55283;51.466;5.478;2023-04-30T02:46:16;102164.75;;;21.58;43.73
68366;BME280;55283;51.466;5.478;2023-04-30T02:48:43;102173.50;;;21.63;43.84
68366;BME280;55283;51.466;5.478;2023-04-30T02:51:08;102166.72;;;21.61;43.80
68366;BME280;55283;51.466;5.478;2023-04-30T02:53:34;102160.75;;;21.59;43.78
68366;BME280;55283;51.466;5.478;2023-04-30T02:55:59;102155.16;;;21.55;43.90
68366;BME280;55283;51.466;5.478;2023-04-30T02:58:25;102165.53;;;21.62;43.73
68366;BME280;55283;51.466;5.478;2023-04-30T03:00:50;102147.97;;;21.54;43.74
68366;BME280;55283;51.466;5.478;2023-04-30T03:03:16;102158.75;;;21.59;43.89
68366;BME280;55283;51.466;5.478;2023-04-30T03:05:41;102156.72;;;21.60;43.65
68366;BME280;55283;51.466;5.478;2023-04-30T03:08:07;102161.91;;;21.61;43.70
68366;BME280;55283;51.466;5.478;2023-04-30T03:10:32;102149.88;;;21.61;43.81
68366;BME280;55283;51.466;5.478;2023-04-30T03:12:57;102152.69;;;21.61;43.69
68366;BME280;55283;51.466;5.478;2023-04-30T03:15:23;102155.50;;;21.61;43.71
68366;BME280;55283;51.466;5.478;2023-04-30T03:17:48;102143.06;;;21.62;43.64
68366;BME280;55283;51.466;5.478;2023-04-30T03:20:15;102139.50;;;21.58;43.47
68366;BME280;55283;51.466;5.478;2023-04-30T03:22:40;102135.53;;;21.55;43.81
68366;BME280;55283;51.466;5.478;2023-04-30T03:25:06;102153.13;;;21.59;43.84
68366;BME280;55283;51.466;5.478;2023-04-30T03:27:31;102143.91;;;21.59;43.65
68366;BME280;55283;51.466;5.478;2023-04-30T03:29:57;102145.50;;;21.60;43.79
68366;BME280;55283;51.466;5.478;2023-04-30T03:32:22;102140.72;;;21.57;43.80
68366;BME280;55283;51.466;5.478;2023-04-30T03:34:48;102139.53;;;21.54;43.68
68366;BME280;55283;51.466;5.478;2023-04-30T03:37:14;102145.13;;;21.58;43.50
68366;BME280;55283;51.466;5.478;2023-04-30T03:39:39;102135.16;;;21.53;43.62
68366;BME280;55283;51.466;5.478;2023-04-30T03:42:05;102132.00;;;21.47;43.77
68366;BME280;55283;51.466;5.478;2023-04-30T03:44:30;102147.19;;;21.54;43.71
68366;BME280;55283;51.466;5.478;2023-04-30T03:46:56;102152.34;;;21.55;43.80
68366;BME280;55283;51.466;5.478;2023-04-30T03:49:21;102139.16;;;21.52;43.59
68366;BME280;55283;51.466;5.478;2023-04-30T03:51:47;102144.72;;;21.56;43.65
68366;BME280;55283;51.466;5.478;2023-04-30T03:54:12;102157.56;;;21.57;43.66
68366;BME280;55283;51.466;5.478;2023-04-30T03:56:37;102152.84;;;21.50;43.61
68366;BME280;55283;51.466;5.478;2023-04-30T03:59:04;102152.34;;;21.55;43.55
68366;BME280;55283;51.466;5.478;2023-04-30T04:01:29;102160.38;;;21.57;43.53
68366;BME280;55283;51.466;5.478;2023-04-30T04:03:55;102153.53;;;21.58;43.64
68366;BME280;55283;51.466;5.478;2023-04-30T04:06:20;102153.19;;;21.52;43.78
68366;BME280;55283;51.466;5.478;2023-04-30T04:08:46;102165.59;;;21.55;43.78
68366;BME280;55283;51.466;5.478;2023-04-30T04:11:12;102168.00;;;21.53;43.83
68366;BME280;55283;51.466;5.478;2023-04-30T04:13:37;102170.03;;;21.52;43.80
68366;BME280;55283;51.466;5.478;2023-04-30T04:16:03;102170.03;;;21.52;43.59
68366;BME280;55283;51.466;5.478;2023-04-30T04:18:28;102170.03;;;21.52;43.74
68366;BME280;55283;51.466;5.478;2023-04-30T04:20:54;102165.69;;;21.47;43.48
68366;BME280;55283;51.466;5.478;2023-04-30T04:23:21;102179.66;;;21.51;43.70
68366;BME280;55283;51.466;5.478;2023-04-30T04:25:46;102175.22;;;21.54;43.66
68366;BME280;55283;51.466;5.478;2023-04-30T04:28:14;102177.66;;;21.52;43.76
68366;BME280;55283;51.466;5.478;2023-04-30T04:30:40;102178.03;;;21.54;43.81
68366;BME280;55283;51.466;5.478;2023-04-30T04:33:06;102174.78;;;21.55;43.60
68366;BME280;55283;51.466;5.478;2023-04-30T04:35:31;102173.63;;;21.53;43.59
68366;BME280;55283;51.466;5.478;2023-04-30T04:37:57;102177.25;;;21.50;43.67
68366;BME280;55283;51.466;5.478;2023-04-30T04:40:23;102170.81;;;21.53;43.56
68366;BME280;55283;51.466;5.478;2023-04-30T04:42:49;102178.88;;;21.51;43.77
68366;BME280;55283;51.466;5.478;2023-04-30T04:45:16;102184.47;;;21.51;43.55
68366;BME280;55283;51.466;5.478;2023-04-30T04:47:41;102190.44;;;21.53;43.47
68366;BME280;55283;51.466;5.478;2023-04-30T04:50:07;102185.66;;;21.53;43.62
68366;BME280;55283;51.466;5.478;2023-04-30T04:52:32;102192.91;;;21.51;43.55
68366;BME280;55283;51.466;5.478;2023-04-30T04:54:58;102194.09;;;21.50;43.66
68366;BME280;55283;51.466;5.478;2023-04-30T04:57:23;102196.06;;;21.53;43.55
68366;BME280;55283;51.466;5.478;2023-04-30T04:59:49;102190.09;;;21.51;43.58
68366;BME280;55283;51.466;5.478;2023-04-30T05:02:14;102190.09;;;21.51;43.60
68366;BME280;55283;51.466;5.478;2023-04-30T05:04:40;102196.50;;;21.51;43.48
68366;BME280;55283;51.466;5.478;2023-04-30T05:07:06;102193.69;;;21.51;43.46
68366;BME280;55283;51.466;5.478;2023-04-30T05:09:32;102189.72;;;21.48;43.56
68366;BME280;55283;51.466;5.478;2023-04-30T05:11:57;102190.94;;;21.47;43.79
68366;BME280;55283;51.466;5.478;2023-04-30T05:14:23;102190.53;;;21.45;43.80
68366;BME280;55283;51.466;5.478;2023-04-30T05:16:48;102199.34;;;21.47;43.48
68366;BME280;55283;51.466;5.478;2023-04-30T05:19:14;102200.22;;;21.37;43.34
68366;BME280;55283;51.466;5.478;2023-04-30T05:21:39;102185.81;;;21.39;42.76
68366;BME280;55283;51.466;5.478;2023-04-30T05:24:05;102179.47;;;21.31;43.01
68366;BME280;55283;51.466;5.478;2023-04-30T05:26:30;102187.00;;;21.41;42.72
68366;BME280;55283;51.466;5.478;2023-04-30T05:28:56;102189.81;;;21.38;42.84
68366;BME280;55283;51.466;5.478;2023-04-30T05:31:21;102189.34;;;21.43;42.81
68366;BME280;55283;51.466;5.478;2023-04-30T05:33:47;102182.59;;;21.37;42.46
68366;BME280;55283;51.466;5.478;2023-04-30T05:36:13;102188.19;;;21.40;42.50
68366;BME280;55283;51.466;5.478;2023-04-30T05:38:38;102184.13;;;21.45;42.74
68366;BME280;55283;51.466;5.478;2023-04-30T05:41:04;102183.34;;;21.44;42.75
68366;BME280;55283;51.466;5.478;2023-04-30T05:43:29;102193.69;;;21.51;43.00
68366;BME280;55283;51.466;5.478;2023-04-30T05:45:54;102188.88;;;21.52;42.95
68366;BME280;55283;51.466;5.478;2023-04-30T05:48:20;102189.25;;;21.54;43.06
68366;BME280;55283;51.466;5.478;2023-04-30T05:50:45;102188.91;;;21.48;43.13
68366;BME280;55283;51.466;5.478;2023-04-30T05:53:12;102194.03;;;21.57;43.17
68366;BME280;55283;51.466;5.478;2023-04-30T05:55:37;102188.47;;;21.50;43.24
68366;BME280;55283;51.466;5.478;2023-04-30T05:58:03;102197.63;;;21.57;43.40
68366;BME280;55283;51.466;5.478;2023-04-30T06:00:28;102201.16;;;21.65;43.59
68366;BME280;55283;51.466;5.478;2023-04-30T06:02:54;102192.25;;;21.74;43.36
68366;BME280;55283;51.466;5.478;2023-04-30T06:05:19;102195.09;;;21.70;43.23
68366;BME280;55283;51.466;5.478;2023-04-30T06:07:45;102191.56;;;21.62;43.41
68366;BME280;55283;51.466;5.478;2023-04-30T06:10:10;102195.22;;;21.59;43.74
68366;BME280;55283;51.466;5.478;2023-04-30T06:12:36;102182.47;;;21.51;43.72
68366;BME280;55283;51.466;5.478;2023-04-30T06:15:04;102190.41;;;21.60;44.23
68366;BME280;55283;51.466;5.478;2023-04-30T06:17:29;102188.72;;;21.66;44.79
68366;BME280;55283;51.466;5.478;2023-04-30T06:19:55;102187.94;;;21.65;43.84
68366;BME280;55283;51.466;5.478;2023-04-30T06:22:22;102186.38;;;21.61;43.60
68366;BME280;55283;51.466;5.478;2023-04-30T06:24:48;102179.56;;;21.62;43.83
68366;BME280;55283;51.466;5.478;2023-04-30T06:27:13;102182.47;;;21.51;43.79
68366;BME280;55283;51.466;5.478;2023-04-30T06:29:39;102181.25;;;21.52;44.21
68366;BME280;55283;51.466;5.478;2023-04-30T06:32:05;102187.28;;;21.51;44.12
68366;BME280;55283;51.466;5.478;2023-04-30T06:34:31;102173.63;;;21.53;44.28
68366;BME280;55283;51.466;5.478;2023-04-30T06:36:57;102189.63;;;21.56;44.32
68366;BME280;55283;51.466;5.478;2023-04-30T06:39:22;102184.81;;;21.56;44.08
68366;BME280;55283;51.466;5.478;2023-04-30T06:41:47;102179.56;;;21.62;45.07
68366;BME280;55283;51.466;5.478;2023-04-30T06:44:13;102181.88;;;21.67;45.82
68366;BME280;55283;51.466;5.478;2023-04-30T06:46:39;102186.66;;;21.70;45.99
68366;BME280;55283;51.466;5.478;2023-04-30T06:49:05;102186.22;;;21.75;45.25
68366;BME280;55283;51.466;5.478;2023-04-30T06:51:30;102186.31;;;21.64;43.76
68366;BME280;55283;51.466;5.478;2023-04-30T06:53:55;102184.41;;;21.58;40.71
68366;BME280;55283;51.466;5.478;2023-04-30T06:56:21;102189.66;;;21.52;39.83
68366;BME280;55283;51.466;5.478;2023-04-30T06:58:46;102191.28;;;21.50;38.53
68366;BME280;55283;51.466;5.478;2023-04-30T07:01:11;102193.75;;;21.44;37.92
68366;BME280;55283;51.466;5.478;2023-04-30T07:03:37;102191.38;;;21.42;38.55
68366;BME280;55283;51.466;5.478;2023-04-30T07:06:03;102188.59;;;21.39;37.54
68366;BME280;55283;51.466;5.478;2023-04-30T07:08:29;102191.44;;;21.35;36.99
68366;BME280;55283;51.466;5.478;2023-04-30T07:10:54;102182.69;;;21.26;35.94
68366;BME280;55283;51.466;5.478;2023-04-30T07:13:20;102187.47;;;21.29;36.49
68366;BME280;55283;51.466;5.478;2023-04-30T07:15:45;102177.94;;;21.23;36.33
68366;BME280;55283;51.466;5.478;2023-04-30T07:18:11;102189.09;;;21.27;35.93
68366;BME280;55283;51.466;5.478;2023-04-30T07:20:36;102178.75;;;21.20;36.41
68366;BME280;55283;51.466;5.478;2023-04-30T07:23:01;102194.66;;;21.34;36.48
68366;BME280;55283;51.466;5.478;2023-04-30T07:25:27;102189.06;;;21.34;35.93
68366;BME280;55283;51.466;5.478;2023-04-30T07:27:54;102163.91;;;21.23;36.46
68366;BME280;55283;51.466;5.478;2023-04-30T07:30:19;102190.59;;;21.38;36.38
68366;BME280;55283;51.466;5.478;2023-04-30T07:32:46;102182.13;;;21.45;36.50
68366;BME280;55283;51.466;5.478;2023-04-30T07:35:12;102181.25;;;21.52;36.50
68366;BME280;55283;51.466;5.478;2023-04-30T07:37:38;102178.88;;;21.47;35.47
68366;BME280;55283;51.466;5.478;2023-04-30T07:40:04;102188.47;;;21.53;35.76
68366;BME280;55283;51.466;5.478;2023-04-30T07:42:30;102181.97;;;21.60;34.99
68366;BME280;55283;51.466;5.478;2023-04-30T07:44:55;102167.66;;;21.51;35.30
68366;BME280;55283;51.466;5.478;2023-04-30T07:47:20;102180.84;;;21.54;41.75
68366;BME280;55283;51.466;5.478;2023-04-30T07:49:46;102177.19;;;21.57;37.44
68366;BME280;55283;51.466;5.478;2023-04-30T07:52:12;102171.19;;;21.55;37.11
68366;BME280;55283;51.466;5.478;2023-04-30T07:54:38;102176.38;;;21.60;37.87
68366;BME280;55283;51.466;5.478;2023-04-30T07:57:05;102182.78;;;21.60;38.90
68366;BME280;55283;51.466;5.478;2023-04-30T07:59:31;102188.91;;;21.48;39.80
68366;BME280;55283;51.466;5.478;2023-04-30T08:01:56;102186.91;;;21.48;39.62
68366;BME280;55283;51.466;5.478;2023-04-30T08:04:22;102182.53;;;21.44;40.58
68366;BME280;55283;51.466;5.478;2023-04-30T08:06:47;102179.66;;;21.51;37.42
68366;BME280;55283;51.466;5.478;2023-04-30T08:09:13;102177.69;;;21.48;38.75
68366;BME280;55283;51.466;5.478;2023-04-30T08:11:40;102187.72;;;21.45;38.04
68366;BME280;55283;51.466;5.478;2023-04-30T08:14:05;102183.34;;;21.44;38.86
68366;BME280;55283;51.466;5.478;2023-04-30T08:16:31;102180.16;;;21.42;39.85
68366;BME280;55283;51.466;5.478;2023-04-30T08:18:56;102185.50;;;21.26;41.90
68366;BME280;55283;51.466;5.478;2023-04-30T08:21:22;102177.19;;;21.19;37.82
68366;BME280;55283;51.466;5.478;2023-04-30T08:23:48;102177.09;;;21.26;38.84
68366;BME280;55283;51.466;5.478;2023-04-30T08:26:13;102177.53;;;21.24;39.33
68366;BME280;55283;51.466;5.478;2023-04-30T08:28:39;102173.16;;;21.20;37.78
68366;BME280;55283;51.466;5.478;2023-04-30T08:31:04;102181.50;;;21.27;39.40
68366;BME280;55283;51.466;5.478;2023-04-30T08:33:30;102179.94;;;21.22;39.83
68366;BME280;55283;51.466;5.478;2023-04-30T08:35:56;102172.41;;;21.12;39.46
68366;BME280;55283;51.466;5.478;2023-04-30T08:38:21;102176.03;;;21.06;38.72
68366;BME280;55283;51.466;5.478;2023-04-30T08:40:53;102183.63;;;21.12;40.91
68366;BME280;55283;51.466;5.478;2023-04-30T08:43:20;102182.41;;;21.17;39.57
68366;BME280;55283;51.466;5.478;2023-04-30T08:45:48;102181.66;;;21.06;38.37
68366;BME280;55283;51.466;5.478;2023-04-30T08:48:15;102165.63;;;21.06;40.17
68366;BME280;55283;51.466;5.478;2023-04-30T08:50:43;102168.03;;;21.08;39.87
68366;BME280;55283;51.466;5.478;2023-04-30T08:53:09;102182.44;;;21.10;38.02
68366;BME280;55283;51.466;5.478;2023-04-30T08:55:35;102174.41;;;21.15;36.11
68366;BME280;55283;51.466;5.478;2023-04-30T08:58:02;102174.78;;;21.14;38.27
68366;BME280;55283;51.466;5.478;2023-04-30T09:00:31;102170.00;;;21.11;40.08
68366;BME280;55283;51.466;5.478;2023-04-30T09:02:56;102171.56;;;21.19;38.13
68366;BME280;55283;51.466;5.478;2023-04-30T09:05:22;102161.97;;;21.13;38.58
68366;BME280;55283;51.466;5.478;2023-04-30T09:07:47;102178.00;;;21.12;37.77
68366;BME280;55283;51.466;5.478;2023-04-30T09:10:17;102158.34;;;21.19;35.96
68366;BME280;55283;51.466;5.478;2023-04-30T09:12:43;102163.19;;;21.15;39.45
68366;BME280;55283;51.466;5.478;2023-04-30T09:15:10;102162.41;;;21.08;38.51
68366;BME280;55283;51.466;5.478;2023-04-30T09:17:37;102158.88;;;21.03;38.52
68366;BME280;55283;51.466;5.478;2023-04-30T09:20:12;102155.59;;;21.09;38.71
68366;BME280;55283;51.466;5.478;2023-04-30T09:22:39;102165.63;;;21.10;38.68
68366;BME280;55283;51.466;5.478;2023-04-30T09:25:05;102159.13;;;21.20;37.41
68366;BME280;55283;51.466;5.478;2023-04-30T09:27:31;102156.31;;;21.20;37.45
68366;BME280;55283;51.466;5.478;2023-04-30T09:29:57;102158.66;;;21.29;37.23
68366;BME280;55283;51.466;5.478;2023-04-30T09:32:23;102168.28;;;21.28;36.93
68366;BME280;55283;51.466;5.478;2023-04-30T09:34:48;102154.25;;;21.28;38.63
68366;BME280;55283;51.466;5.478;2023-04-30T09:37:14;102156.63;;;21.33;36.78
68366;BME280;55283;51.466;5.478;2023-04-30T09:39:47;102151.09;;;21.22;39.29
68366;BME280;55283;51.466;5.478;2023-04-30T09:42:16;102158.25;;;21.30;37.82
68366;BME280;55283;51.466;5.478;2023-04-30T09:44:43;102164.59;;;21.34;36.25
68366;BME280;55283;51.466;5.478;2023-04-30T09:47:17;102165.34;;;21.38;36.73
68366;BME280;55283;51.466;5.478;2023-04-30T09:49:46;102162.94;;;21.40;37.12
68366;BME280;55283;51.466;5.478;2023-04-30T09:52:14;102146.50;;;21.42;36.47
68366;BME280;55283;51.466;5.478;2023-04-30T09:54:40;102148.84;;;21.47;36.55
68366;BME280;55283;51.466;5.478;2023-04-30T09:57:09;102151.59;;;21.51;37.09
68366;BME280;55283;51.466;5.478;2023-04-30T09:59:35;102140.38;;;21.51;35.55
68366;BME280;55283;51.466;5.478;2023-04-30T10:02:04;102156.03;;;21.48;36.27
68366;BME280;55283;51.466;5.478;2023-04-30T10:04:38;102152.94;;;21.39;36.88
68366;BME280;55283;51.466;5.478;2023-04-30T10:07:19;102150.53;;;21.38;36.33
68366;BME280;55283;51.466;5.478;2023-04-30T10:09:57;102150.09;;;21.43;38.22
68366;BME280;55283;51.466;5.478;2023-04-30T10:12:26;102140.09;;;21.38;37.73
68366;BME280;55283;51.466;5.478;2023-04-30T10:15:00;102132.13;;;21.37;38.17
68366;BME280;55283;51.466;5.478;2023-04-30T10:17:31;102138.53;;;21.37;39.63
68366;BME280;55283;51.466;5.478;2023-04-30T10:20:06;102145.69;;;21.42;37.24
68366;BME280;55283;51.466;5.478;2023-04-30T10:22:33;102142.56;;;21.36;38.98
68366;BME280;55283;51.466;5.478;2023-04-30T10:25:00;102144.56;;;21.36;38.59
68366;BME280;55283;51.466;5.478;2023-04-30T10:27:27;102131.78;;;21.31;38.91
68366;BME280;55283;51.466;5.478;2023-04-30T10:29:53;102133.69;;;21.41;37.50
68366;BME280;55283;51.466;5.478;2023-04-30T10:32:19;102124.88;;;21.39;38.29
68366;BME280;55283;51.466;5.478;2023-04-30T10:35:04;102122.47;;;21.38;37.31
68366;BME280;55283;51.466;5.478;2023-04-30T10:37:59;102118.81;;;21.44;37.12
68366;BME280;55283;51.466;5.478;2023-04-30T10:40:28;102110.75;;;21.50;37.51
68366;BME280;55283;51.466;5.478;2023-04-30T10:42:54;102108.25;;;21.56;36.93
68366;BME280;55283;51.466;5.478;2023-04-30T10:45:42;102104.91;;;21.68;37.62
68366;BME280;55283;51.466;5.478;2023-04-30T10:48:08;102106.09;;;21.70;37.26
68366;BME280;55283;51.466;5.478;2023-04-30T10:50:41;102109.19;;;21.80;37.64
68366;BME280;55283;51.466;5.478;2023-04-30T10:53:12;102104.31;;;21.84;37.71
68366;BME280;55283;51.466;5.478;2023-04-30T10:56:06;102089.88;;;21.85;37.87
68366;BME280;55283;51.466;5.478;2023-04-30T10:58:39;102090.59;;;21.89;37.99
68366;BME280;55283;51.466;5.478;2023-04-30T11:01:12;102096.19;;;21.93;38.02
68366;BME280;55283;51.466;5.478;2023-04-30T11:04:05;102071.34;;;21.91;37.99
68366;BME280;55283;51.466;5.478;2023-04-30T11:09:40;102082.47;;;21.99;38.27
68366;BME280;55283;51.466;5.478;2023-04-30T11:14:43;102085.66;;;22.01;38.44
68366;BME280;55283;51.466;5.478;2023-04-30T11:17:10;102080.44;;;22.03;38.09
68366;BME280;55283;51.466;5.478;2023-04-30T11:19:45;102066.22;;;21.83;38.22
68366;BME280;55283;51.466;5.478;2023-04-30T11:27:25;102065.91;;;21.77;36.80
68366;BME280;55283;51.466;5.478;2023-04-30T11:29:52;102065.91;;;21.77;36.16
68366;BME280;55283;51.466;5.478;2023-04-30T11:32:19;102056.38;;;21.71;38.27
68366;BME280;55283;51.466;5.478;2023-04-30T11:34:45;102049.16;;;21.70;37.95
68366;BME280;55283;51.466;5.478;2023-04-30T11:37:18;102058.75;;;21.73;36.64
68366;BME280;55283;51.466;5.478;2023-04-30T11:39:45;102054.75;;;21.70;35.61
68366;BME280;55283;51.466;5.478;2023-04-30T11:42:17;102049.91;;;21.74;35.55
68366;BME280;55283;51.466;5.478;2023-04-30T11:44:44;102029.81;;;21.76;35.81
68366;BME280;55283;51.466;5.478;2023-04-30T11:47:12;102035.41;;;21.79;35.99
68366;BME280;55283;51.466;5.478;2023-04-30T11:49:38;102037.00;;;21.80;36.42
68366;BME280;55283;51.466;5.478;2023-04-30T11:52:03;102035.81;;;21.78;36.51
68366;BME280;55283;51.466;5.478;2023-04-30T11:54:32;102025.72;;;21.84;36.48
68366;BME280;55283;51.466;5.478;2023-04-30T11:56:59;102043.72;;;21.86;35.44
68366;BME280;55283;51.466;5.478;2023-04-30T11:59:29;102039.69;;;21.87;34.52
68366;BME280;55283;51.466;5.478;2023-04-30T12:01:54;102026.50;;;21.84;34.03
68366;BME280;55283;51.466;5.478;2023-04-30T12:04:20;102026.94;;;21.83;35.21
68366;BME280;55283;51.466;5.478;2023-04-30T12:06:46;102020.81;;;21.91;36.18
68366;BME280;55283;51.466;5.478;2023-04-30T12:09:11;102023.16;;;21.97;36.20
68366;BME280;55283;51.466;5.478;2023-04-30T12:11:37;102027.03;;;22.06;36.47
68366;BME280;55283;51.466;5.478;2023-04-30T12:14:07;102029.06;;;22.02;36.27
68366;BME280;55283;51.466;5.478;2023-04-30T12:19:16;102013.34;;;22.08;36.75
68366;BME280;55283;51.466;5.478;2023-04-30T12:21:43;102010.03;;;22.13;36.83
68366;BME280;55283;51.466;5.478;2023-04-30T12:24:14;102016.84;;;22.16;37.05
68366;BME280;55283;51.466;5.478;2023-04-30T12:26:41;102015.97;;;22.19;36.95
68366;BME280;55283;51.466;5.478;2023-04-30T12:29:13;102002.00;;;22.15;37.22
68366;BME280;55283;51.466;5.478;2023-04-30T12:31:39;102005.19;;;22.18;37.36
68366;BME280;55283;51.466;5.478;2023-04-30T12:34:07;102010.38;;;22.19;37.75
68366;BME280;55283;51.466;5.478;2023-04-30T12:36:33;102005.91;;;22.22;37.65
68366;BME280;55283;51.466;5.478;2023-04-30T12:39:07;102001.09;;;22.22;37.71
68366;BME280;55283;51.466;5.478;2023-04-30T12:41:39;101992.31;;;22.20;37.61
68366;BME280;55283;51.466;5.478;2023-04-30T12:44:21;101993.41;;;22.26;37.91
68366;BME280;55283;51.466;5.478;2023-04-30T12:46:49;101990.94;;;22.28;37.95
68366;BME280;55283;51.466;5.478;2023-04-30T12:49:41;101987.72;;;22.30;37.95
68366;BME280;55283;51.466;5.478;2023-04-30T12:52:11;101984.53;;;22.28;38.04
68366;BME280;55283;51.466;5.478;2023-04-30T12:54:37;101980.22;;;22.23;38.09
68366;BME280;55283;51.466;5.478;2023-04-30T12:57:11;101988.50;;;22.30;38.31
68366;BME280;55283;51.466;5.478;2023-04-30T13:02:11;101986.94;;;22.29;38.29
68366;BME280;55283;51.466;5.478;2023-04-30T13:04:38;101977.75;;;22.25;38.53
68366;BME280;55283;51.466;5.478;2023-04-30T13:07:03;101973.75;;;22.26;38.74
68366;BME280;55283;51.466;5.478;2023-04-30T13:09:33;101962.50;;;22.26;38.66
68366;BME280;55283;51.466;5.478;2023-04-30T13:11:59;101960.19;;;22.21;38.71
68366;BME280;55283;51.466;5.478;2023-04-30T13:14:25;101966.53;;;22.25;38.81
68366;BME280;55283;51.466;5.478;2023-04-30T13:16:51;101965.75;;;22.25;38.91
68366;BME280;55283;51.466;5.478;2023-04-30T13:19:18;101955.28;;;22.25;38.99